PEAK 2 PEAK MOUNTAIN BIKE RACE
OCTOBER 19, 2013
TIMING BY RACE SERVICES COMPANY
www.RaceServices.com
ELITE/EXPERT RESULTS

PEAK2PEAK CLASSIC


PRO/ELITE MEN

Place No. Name Sponsor/team Lap1 Lap2 Lap3 Time
1 1 Cole House 616 Fabrication 40:57 41:37 42:41 2:05:14
2 4 Michael Simonson 616 Fabrication 41:01 41:43 44:03 2:06:45
3 2 Jorden Wakeley 616 Fabrications 40:59 41:43 44:30 2:07:12
4 56 Scott Hoffner Team Athletic Mentors 41:02 44:17 45:21 2:10:39
5 3 Alex Vanias Bissell-Abg-Giant 41:06 44:15 45:48 2:11:08
6 587 Ronald Catlin Rbs Team 41:23 44:05 47:01 2:12:27
7 45 Derek Graham Bissell-Abg-Giant 42:34 44:06 45:55 2:12:34
8 69 Dan Korienek Leadout/west Mi Bike 42:55 44:30 46:53 2:14:18
9 75 Jason Lowetz Einstein Racing 42:53 44:37 47:01 2:14:30
10 7267 Robert Neidlinger Hc Hooligans 43:41 45:38 46:19 2:15:37
11 30 Jimmie Colflesh Mom & Pop Racing/sweet Bikes 43:45 45:39 46:26 2:15:49
12 25 Jonathan Card Team Card 43:44 45:36 47:18 2:16:38
13 583 Geoff Kuyper Leadout Racing 43:43 45:40 47:53 2:17:15
14 64 Ryan Kennedy Einstein Racing 43:42 45:40 48:20 2:17:41
15 123 Christopher Vitton Speed Merchants 43:44 45:39 48:34 2:17:56
16 7258 Kelly Sugg Rbs Mtn Bike Team 44:54 46:57 48:32 2:20:21
17 55 Earl Hillaker Founders Racing 44:40 47:11 48:45 2:20:35
18 44 Brent Goetz Revolution Racing P/b Midland Brewing 45:25 48:34 50:05 2:24:04
19 79 Aaron McCready Racing Greyhounds 43:17 45:51 55:01 2:24:09
20 33 Shawn Davison Farm Team Racing 45:01 47:08 52:12 2:24:20
21 63 Jeremy Karel Founders Racing 45:03 47:23 53:16 2:25:41
22 104 Benjamin Rollenhagen Revolution Racing P/b Midland Brewing Co 45:01 47:23 56:01 2:28:24
23 132 Nathaniel Williams Bissell Abg Giant 42:57 47:05
24 7260 Paul Borden Sweet Bikes 44:09
PEAK2PEAK CLASSIC


PRO/ELITE WOMEN

Place No. Name Sponsor/team Lap1 Lap2 Lap3 Time
1 5 MacKenzie Woodring Einstein Racing 46:54 48:41 50:36 2:26:10
2 6 Sue Stephens 48:18 49:56 50:57 2:29:09
3 7261 Lauri Brockmiller Hagerty Cycling 50:17 51:23 53:06 2:34:45
4 7 Erin Vicary 51:05 57:41 1:02:44 2:51:28
5 135 Wendy Zamzow-Blumerick Mom & Pop Racing/sweet Bikes 51:19 59:38 1:01:09 2:52:04
6 92 Laurel Peak 50:57 1:12:18 58:57 3:02:11
7 7249 Dori Leib Wolverine Sports Club/acf.Net 53:27 54:37 1:23:27 3:11:30
PEAK2PEAK CLASSIC


EXPERT WOMEN

Place No. Name Sponsor/team Lap1 Lap2 Lap3 Time
1 31 Melissa Colflesh Mom & Pop Racing/sweet Bikes 52:02 55:43 58:15 2:45:59
2 597 Kim Owens Liv/giant Village Bike Women's Team 53:50 58:20 1:01:48 2:53:57
3 136 Erica Zeboor Zeboor Vanduinen Group 54:39 1:02:17 1:03:25 3:00:20
PEAK2PEAK CLASSIC


EXPERT MEN 18-29

Place No. Name Sponsor/team Lap1 Lap2 Lap3 Time
1 578 Shane Leslie Specialized Racing 45:14 46:20 48:32 2:20:05
2 106 Greg Schultz Rbs 47:06 47:47 48:42 2:23:34
3 118 Alexander Tenelshof Village Bike & Fitness 45:25 45:51 53:46 2:25:01
4 78 Michael Manning Racing Greyhounds 46:26 48:13 50:31 2:25:10
5 32 Jerry Cross Village Bike And Fitness 47:31 48:45 50:52 2:27:07
6 88 Jonathan Nesburg Leadout Racing 47:16 48:14 52:51 2:28:20
7 82 Ben Modic Village Bike & Fitness 47:42 49:42 53:29 2:30:52
8 102 Paul Riggs Racing Greyhounds 46:52 50:25 53:49 2:31:04
9 600 Brian Kuyper Leadout Racing 46:49 48:41 59:29 2:34:57
10 127 Harrison Webb The Speed Merchants Bike Shop 49:52 53:02 57:46 2:40:39
11 47 Tristan Greathouse 47:28 51:27 1:01:54 2:40:48
12 70 Keegan Korienek Leadout/west Mi Bike 50:33 52:18 58:05 2:40:55
13 39 Ryan Erxleben Team Priority Health 45:30 57:09 1:00:12 2:42:50
14 100 David Ridley 50:13 54:43 58:36 2:43:30
15 16 Michael Best 51:22 55:23 1:00:59 2:47:43
16 96 Dusty Prescott Village Bike Shop 47:29 1:00:49 1:13:08 3:01:24
17 17 Josh Bloom Keen Racing 1:04:29
PEAK2PEAK CLASSIC


EXPERT MEN 30-39

Place No. Name Sponsor/team Lap1 Lap2 Lap3 Time
1 85 Keegan Myers M22/lovemi/broneah/brew/brickwheels/thecyclery/strava 44:59 46:07 47:29 2:18:35
2 73 Brad Lako Klm/cold Stone/apto Cycling 44:58 46:19 47:22 2:18:38
3 66 Sean Kickbush Einstein Racing 45:12 46:04 47:32 2:18:48
4 113 Nate St. Onge Einstein Cycles 47:00 46:20 47:15 2:20:34
5 42 Eric Forrester East Hills Velo 45:21 46:19 48:56 2:20:36
6 608 Daniel Sterling Racing Greyhounds 46:33 46:54 49:42 2:23:08
7 46 David Grant Racing Greyhounds 46:16 47:30 49:53 2:23:38
8 23 Jody Cagle Racing Greyhounds 45:35 48:11 50:16 2:24:01
9 87 Paul Nederveld Fusion Cycling Team 47:04 48:25 49:29 2:24:57
10 7253 Brian Beauchamp Hagerty Cycling 46:40 48:47 50:44 2:26:10
11 59 Patrick Hornacek Tnr 46:42 47:58 52:05 2:26:45
12 21 Marc Brunette McLain Race Team 47:11 49:03 51:28 2:27:41
13 83 Brian Monton Shoreline Cycling Club 48:33 50:42 52:39 2:31:53
14 7259 Aaron Zuelke West Michigan Coast Riders 47:05 49:39 55:31 2:32:13
15 131 Nick Wierzba Hagerty Cycling 47:44 49:42 54:59 2:32:23
16 7265 David Bennefield Hc Hooligans 49:25 50:18 53:12 2:32:54
17 97 Tim Pulliam Keenteam Revolution 48:59 51:07 52:50 2:32:55
18 107 Steve Schultz Latutude 45/twisted Stone 47:55 50:07 55:22 2:33:24
19 60 Eric Hune Team Apex Multisport 49:02 50:48 54:38 2:34:27
20 34 Nick Demek Trail's Edge Cyclery 49:26 51:19 54:14 2:34:59
21 130 Jason Whittaker 49:16 50:43 56:19 2:36:17
22 7264 John Semeyn Keen Racing 49:22 50:41 57:31 2:37:33
23 129 Schad Whiteherse Brickwheels/boss Crank 49:16 51:20 57:01 2:37:36
24 35 Mitchell Deyoung Big Ring Coffee 49:56 51:33 56:19 2:37:46
25 126 Adam Webb 49:06 52:26 57:47 2:39:18
26 7263 Adam Hallett Hc Hooligans 49:14 51:23 59:19 2:39:55
27 84 Dean Murphey City Bike Shop 49:30 54:29 56:52 2:40:50
28 7266 Alejandro Pina City Bike Shop 50:34 53:45 57:40 2:41:57
29 86 Adam Naish Rbs Mtb Team 49:31 54:55 1:00:28 2:44:54
30 95 Lucas Porinsky Bacon And Koelsch 52:12 55:33 58:33 2:46:17
31 124 Jer Walker Certainteed 55:03
32 15 David Best City Bike Shop 58:02
PEAK2PEAK CLASSIC


EXPERT MEN 40-44

Place No. Name Sponsor/team Lap1 Lap2 Lap3 Time
1 108 Tom Scott Speed Merchants 45:40 45:40 46:44 2:18:02
2 91 Jamie Parker Specialized 45:40 45:40 47:15 2:18:33
3 51 Don Hackney Cross Country Cycle 45:46 48:18 49:44 2:23:47
4 19 Jim Bonnell Acf Of Pontiac 47:04 48:48 50:06 2:25:57
5 580 Joshua Neider Trails Edge 46:13 48:32 51:38 2:26:21
6 7257 Jeff Zeller Quiring Cycles.Net/endoman 46:00 48:46 52:15 2:27:00
7 48 Robert Gribble Team Freewheeler 47:27 49:30 51:18 2:28:14
8 7262 Scott Pruski Freewheeler Racing 46:27 50:11 52:25 2:29:02
9 114 Kevin Stacey Cross Country Cycle 48:19 50:52 52:08 2:31:17
10 7252 Eric Grassa 47:22 49:57 55:14 2:32:32
11 110 Rob Selle Rbs Mtb Team 48:39 51:41 52:36 2:32:55
12 125 Dave Walston Einstein Racing 48:47 51:19 53:39 2:33:44
13 7248 Brad Jerris 02 49:24 50:46 53:39 2:33:48
14 589 Todd Anthes Priority Health 49:22 52:12 52:54 2:34:27
15 7250 Dave Van Laecke Cbc ( Cannon Brewing) 48:13 51:35 56:15 2:36:02
16 98 Ulises Rabeiro Latitude 45/ Twisted Stone 50:49 51:35 54:36 2:36:59
17 7251 Scott Wolfson Klm/coldstone 49:46 53:05 55:04 2:37:54
18 585 Jonathan Zoutendam McLain 48:15 52:13 58:45 2:39:11
19 12 Aaron Barto Cannondale Midwest Racing 50:46 52:17 56:48 2:39:49
20 80 Kc McGovern Bissell/abg Masters 47:21 51:49 1:00:44 2:39:53
21 121 John Urbain City Bike Shop 51:40 54:48 57:07 2:43:35
22 71 Scott Labonte McLain Race Team 51:21 55:07 58:02 2:44:29
23 14 Christopher Benson Latitude 45/twisted Stone 55:10 58:55 1:00:39 2:54:42
24 13 Anthony Bastuk Klm / Cold Stone 46:54 54:25
25 77 Jarod Makowski Belle Tire / Cxc 47:06
PEAK2PEAK CLASSIC


EXPERT MEN 45-54

Place No. Name Sponsor/team Lap1 Lap2 Lap3 Time
1 61 Jim James Aberdeen Bike Chelsea 45:29 46:27 46:59 2:18:53
2 128 Tom White City Bike Shop! 45:29 46:27 47:33 2:19:29
3 58 Daniel Hofstra Hagerty Cycling 45:32 46:24 47:34 2:19:29
4 112 Mark Spore Cross Country Cycle 45:54 48:14 49:10 2:23:17
5 81 Jimmi McMurray East Hills Velo 46:26 47:56 49:13 2:23:35
6 54 David Hietikko East Hills Velo 45:32 47:12 51:14 2:23:56
7 53 Chris Hansen Latitude 45/twisted Stone 47:17 49:20 51:13 2:27:50
8 26 Dale Carley Fusion 47:26 50:46 50:33 2:28:43
9 116 Tim Stroebe Cross Country Cycle 48:24 49:44 51:41 2:29:49
10 40 Jeff Faber Cross Country Cycle 48:22 49:47 51:41 2:29:49
11 76 David Maclean Shoreline Cycling Club 45:32 48:17 56:25 2:30:13
12 65 Clark Kent 48:44 50:34 53:04 2:32:21
13 99 Tim Raymond Freewheeler Racing 48:02 50:36 53:47 2:32:24
14 120 Lewis Tripp Paint Creek Bicycles 48:47 50:27 53:11 2:32:24
15 9 Mike Adams Racing Greyhounds 49:05 51:10 53:07 2:33:21
16 101 Keith Riege Paint Creek Bicycles 49:32 51:21 52:34 2:33:26
17 117 Clete Swanson Swanson's Cherry Juice 48:22 50:15 54:58 2:33:34
18 134 Peter Worden Hagerty Cycling Team 49:03 51:38 53:53 2:34:33
19 50 Tony Gwin Maumee Valley Wheelmen 49:37 51:17 54:38 2:35:31
20 133 Greg Witt Rbs Mtn Bike Team 50:06 52:20 53:40 2:36:04
21 72 Stephen Lagerquist Einstein Racing 50:41 54:11 56:41 2:41:31
22 89 Kristopher Ouvry Cannondale Midwest Racing 51:34 57:18 59:20 2:48:11
23 122 Mike Vanhouten Bissell/abg 52:06 58:42 1:04:36 2:55:22
24 304 Michael Labadie 54:25 1:01:31 1:05:13 3:01:08
25 67 Andy Klevorn Trailhead Bike Shop 55:29 1:02:19 1:11:51 3:09:39
26 7268 Jim Dewent West Michigan Coast Riders 49:11
PEAK2PEAK CLASSIC


EXPERT MEN 55+

Place No. Name Sponsor/team Lap1 Lap2 Lap3 Time
1 68 Jack Kline McLain Race Team 47:13 48:53 50:04 2:26:09
2 41 Donald Fedrigon Hagerty Cycling 47:35 48:29 50:49 2:26:52
3 29 David Coar Men Of Steel Racing 47:42 49:24 51:17 2:28:22
4 36 Jeff Doerr McLain Race Team 47:38 51:08 53:33 2:32:18
5 7254 Lars Welton Hagerty Cycling 48:57 51:00 52:38 2:32:34
6 10 Fredrick Anderson Sinas Dramis Law Cft 52:55 54:26 57:41 2:45:01
7 24 Don Camp West Mi Coast Riders 53:50 58:01 1:15:48 3:07:38
8 20 William Botens Rbs Cycling Team 1:03:53 1:00:24
PEAK2PEAK CLASSIC


ALL EXPERT MEN SS

Place No. Name Sponsor/team Lap1 Lap2 Lap3 Time
1 28 Gavin Clark Racing Greyhounds 45:44 47:44 51:39 2:25:06
2 90 Dan Packer City Bike Shop 47:47 49:53 51:00 2:28:39
3 8 Todd Ace Racing Greyhounds 47:27 49:52 53:37 2:30:56
4 7256 Ken Blakey-Shell Quiring Cycles 47:23 51:49 54:32 2:33:42
5 43 Charles Ganske 49:34 51:27 53:24 2:34:24
6 18 Todd Blumerick Mom & Pop Racing/sweet Bikes 49:34 51:47 54:22 2:35:42
7 7255 Scott Quiring Quiring Cycles.Net 45:59 50:06 1:02:46 2:38:49
8 62 Ben Kapenga Freewheeler Racing 49:15 52:38 57:24 2:39:16
9 93 Jeff Phipps 50:02 52:52 59:03 2:41:56
10 119 Talon Tramper Village Bike & Fitness 51:53 57:58 1:02:14 2:52:04
11 49 Peter Gurney Latitude 45/twisted Stone 55:46 58:27 1:00:26 2:54:37
12 22 David Bucholtz Hagerty 51:11 58:12